Time;durP1;ratioP1;P1;durP2;ratioP2;P2;SDS_P1;SDS_P2;PMS_P1;PMS_P2;Temp;Humidity;BMP_temperature;BMP_pressure;BME280_temperature;BME280_humidity;BME280_pressure;Samples;Min_cycle;Max_cycle;Signal;HPM_P1;HPM_P2
2022/09/13 00:00:12;;;;;;;18.98;12.43;;;;;;;;;;5033932;28;20017;-65
2022/09/13 00:02:39;;;;;;;21.35;13.32;;;;;;;;;;5057862;22;20049;-57
2022/09/13 00:05:05;;;;;;;18.33;11.95;;;;;;;;;;5053050;28;20535;-60
2022/09/13 00:07:31;;;;;;;19.38;12.57;;;;;;;;;;5052449;28;20370;-59
2022/09/13 00:09:57;;;;;;;19.58;12.48;;;;;;;;;;5052578;28;20023;-61
2022/09/13 00:12:23;;;;;;;20.58;12.70;;;;;;;;;;5051759;28;20082;-60
2022/09/13 00:14:50;;;;;;;20.42;12.18;;;;;;;;;;5052627;28;20392;-62
2022/09/13 00:17:16;;;;;;;21.20;12.27;;;;;;;;;;5052016;28;20444;-61
2022/09/13 00:19:42;;;;;;;20.48;12.70;;;;;;;;;;5051229;28;20120;-63
2022/09/13 00:22:08;;;;;;;19.95;12.52;;;;;;;;;;5052402;28;20074;-61
2022/09/13 00:24:34;;;;;;;20.35;12.65;;;;;;;;;;5052259;28;20484;-61
2022/09/13 00:27:01;;;;;;;20.40;13.80;;;;;;;;;;5052378;28;20108;-61
2022/09/13 00:29:27;;;;;;;19.70;12.82;;;;;;;;;;5052112;28;20082;-62
2022/09/13 00:31:53;;;;;;;19.70;13.57;;;;;;;;;;5051103;28;20025;-62
2022/09/13 00:34:19;;;;;;;20.60;13.32;;;;;;;;;;5052088;28;20162;-65
2022/09/13 00:36:45;;;;;;;19.42;13.20;;;;;;;;;;5052182;28;20099;-60
2022/09/13 00:39:11;;;;;;;21.83;13.32;;;;;;;;;;5051928;28;20025;-61
2022/09/13 00:41:38;;;;;;;20.50;13.60;;;;;;;;;;5051922;28;20114;-60
2022/09/13 00:44:05;;;;;;;21.77;13.40;;;;;;;;;;5052042;28;20100;-62
2022/09/13 00:46:43;;;;;;;19.38;13.10;;;;;;;;;;5051929;28;20112;-58
2022/09/13 00:49:11;;;;;;;19.77;12.90;;;;;;;;;;5051767;28;20432;-60
2022/09/13 00:51:38;;;;;;;20.90;12.60;;;;;;;;;;5050769;28;20025;-63
2022/09/13 00:54:04;;;;;;;22.30;12.48;;;;;;;;;;5051998;28;20115;-63
2022/09/13 00:56:35;;;;;;;18.75;12.40;;;;;;;;;;5052056;28;20080;-62
2022/09/13 00:59:05;;;;;;;21.92;13.05;;;;;;;;;;5050636;28;20459;-62
2022/09/13 01:01:38;;;;;;;20.60;12.80;;;;;;;;;;5050505;28;20022;-62
2022/09/13 01:04:04;;;;;;;19.80;12.73;;;;;;;;;;5050869;28;20481;-63
2022/09/13 01:06:32;;;;;;;17.92;11.70;;;;;;;;;;5052083;28;20120;-63
2022/09/13 01:09:02;;;;;;;18.88;12.30;;;;;;;;;;5051882;28;20029;-60
2022/09/13 01:11:41;;;;;;;20.58;13.55;;;;;;;;;;5051559;28;20025;-61
2022/09/13 01:14:08;;;;;;;21.27;13.43;;;;;;;;;;5051928;28;20021;-62
2022/09/13 01:16:34;;;;;;;19.90;12.25;;;;;;;;;;5050738;28;20033;-62
2022/09/13 01:19:00;;;;;;;18.98;12.02;;;;;;;;;;5051555;28;20065;-60
2022/09/13 01:21:29;;;;;;;19.48;12.43;;;;;;;;;;5051306;28;20020;-63
2022/09/13 01:23:56;;;;;;;19.23;11.85;;;;;;;;;;5053106;28;20021;-63
2022/09/13 01:26:45;;;;;;;19.38;12.82;;;;;;;;;;5055825;28;20025;-62
2022/09/13 01:29:34;;;;;;;20.00;12.38;;;;;;;;;;5055477;28;20045;-63
2022/09/13 01:32:26;;;;;;;20.58;12.23;;;;;;;;;;5027449;28;20170;-63
2022/09/13 01:34:52;;;;;;;18.92;12.13;;;;;;;;;;5055960;28;20029;-63
2022/09/13 01:37:33;;;;;;;20.60;12.63;;;;;;;;;;5055525;28;20047;-62
2022/09/13 01:39:58;;;;;;;22.98;13.27;;;;;;;;;;5056070;28;20393;-62
2022/09/13 01:42:40;;;;;;;19.73;12.70;;;;;;;;;;5054545;28;20025;-60
2022/09/13 01:45:14;;;;;;;20.25;13.38;;;;;;;;;;5055328;28;20021;-60
2022/09/13 01:47:40;;;;;;;21.42;13.45;;;;;;;;;;5054960;28;20075;-59
2022/09/13 01:50:12;;;;;;;20.38;12.85;;;;;;;;;;5054699;28;20053;-59
2022/09/13 01:52:42;;;;;;;20.85;12.98;;;;;;;;;;5053846;28;20074;-63
2022/09/13 01:55:26;;;;;;;19.98;13.00;;;;;;;;;;5055316;28;20028;-63
2022/09/13 01:57:58;;;;;;;22.08;13.77;;;;;;;;;;5055073;28;20033;-61
2022/09/13 02:00:24;;;;;;;19.88;13.23;;;;;;;;;;5055327;28;20396;-62
2022/09/13 02:03:03;;;;;;;21.65;13.75;;;;;;;;;;5053859;28;20029;-62
2022/09/13 02:05:35;;;;;;;19.95;12.48;;;;;;;;;;5055237;28;20021;-63
2022/09/13 02:08:07;;;;;;;20.63;12.60;;;;;;;;;;5054969;28;20037;-62
2022/09/13 02:10:35;;;;;;;20.75;13.48;;;;;;;;;;5055018;28;20028;-63
2022/09/13 02:13:01;;;;;;;20.50;12.85;;;;;;;;;;5055093;28;20028;-59
2022/09/13 02:15:40;;;;;;;21.98;13.70;;;;;;;;;;5055027;28;20021;-63
2022/09/13 02:18:18;;;;;;;19.27;12.00;;;;;;;;;;5053533;28;20036;-63
2022/09/13 02:20:45;;;;;;;21.42;12.27;;;;;;;;;;5054359;28;20017;-63
2022/09/13 02:23:16;;;;;;;19.88;12.73;;;;;;;;;;5054560;28;20047;-61
2022/09/13 02:25:43;;;;;;;20.65;13.23;;;;;;;;;;5054552;28;20028;-63
2022/09/13 02:28:12;;;;;;;18.95;13.30;;;;;;;;;;5054322;28;20370;-63
2022/09/13 02:30:40;;;;;;;20.20;13.50;;;;;;;;;;5053256;28;20029;-61
2022/09/13 02:33:06;;;;;;;19.50;12.85;;;;;;;;;;5054416;28;20021;-62
2022/09/13 02:35:35;;;;;;;19.45;13.15;;;;;;;;;;5053622;28;20064;-57
2022/09/13 02:38:10;;;;;;;20.52;12.95;;;;;;;;;;5054025;28;20098;-63
2022/09/13 02:40:43;;;;;;;20.40;13.00;;;;;;;;;;5054547;28;20044;-60
2022/09/13 02:43:14;;;;;;;20.27;12.65;;;;;;;;;;5053025;28;20075;-61
2022/09/13 02:46:03;;;;;;;20.70;13.98;;;;;;;;;;5054025;28;20055;-63
2022/09/13 02:48:37;;;;;;;19.63;12.77;;;;;;;;;;5045813;28;20037;-63
2022/09/13 02:51:06;;;;;;;21.63;14.70;;;;;;;;;;5052972;28;20481;-61
2022/09/13 02:53:43;;;;;;;20.10;13.48;;;;;;;;;;5052839;28;20431;-63
2022/09/13 02:56:25;;;;;;;20.40;12.88;;;;;;;;;;5052727;28;20025;-60
2022/09/13 02:58:54;;;;;;;20.80;14.02;;;;;;;;;;5051065;28;20025;-63
2022/09/13 03:01:20;;;;;;;20.02;13.13;;;;;;;;;;5052438;28;20025;-62
2022/09/13 03:03:46;;;;;;;21.08;14.00;;;;;;;;;;5053609;28;20040;-62
2022/09/13 03:06:12;;;;;;;21.42;14.15;;;;;;;;;;5052392;28;20055;-63
2022/09/13 03:08:38;;;;;;;21.30;13.27;;;;;;;;;;5052079;28;20025;-62
2022/09/13 03:11:04;;;;;;;22.02;13.70;;;;;;;;;;5053580;28;20031;-61
2022/09/13 03:13:40;;;;;;;21.05;13.50;;;;;;;;;;5053603;28;20061;-61
2022/09/13 03:16:18;;;;;;;19.70;12.98;;;;;;;;;;5053442;28;20091;-63
2022/09/13 03:18:52;;;;;;;20.10;13.50;;;;;;;;;;5053164;28;20029;-62
2022/09/13 03:21:21;;;;;;;20.85;14.32;;;;;;;;;;5051644;28;20547;-61
2022/09/13 03:23:47;;;;;;;20.13;13.82;;;;;;;;;;5053288;28;20021;-62
2022/09/13 03:26:31;;;;;;;21.02;13.75;;;;;;;;;;5053183;28;20096;-62
2022/09/13 03:29:00;;;;;;;21.80;14.23;;;;;;;;;;5053213;28;20082;-62
2022/09/13 03:31:26;;;;;;;21.05;14.15;;;;;;;;;;5052995;28;20078;-62
2022/09/13 03:33:52;;;;;;;20.02;13.27;;;;;;;;;;5053045;28;20033;-62
2022/09/13 03:36:25;;;;;;;19.42;12.75;;;;;;;;;;5053371;28;20097;-61
2022/09/13 03:39:08;;;;;;;19.85;12.80;;;;;;;;;;5051321;28;20032;-62
2022/09/13 03:41:37;;;;;;;21.95;13.48;;;;;;;;;;5052913;28;20021;-61
2022/09/13 03:44:03;;;;;;;;;;;;;;;;;;5053468;28;20028;-59
2022/09/13 03:46:37;;;;;;;22.17;13.55;;;;;;;;;;5050755;28;19905;-61
2022/09/13 03:49:23;;;;;;;20.58;13.13;;;;;;;;;;5052515;28;20063;-61
2022/09/13 03:51:50;;;;;;;20.27;12.85;;;;;;;;;;5051392;28;20025;-62
2022/09/13 03:54:18;;;;;;;20.95;13.13;;;;;;;;;;5052676;28;20539;-62
2022/09/13 03:57:04;;;;;;;22.10;13.60;;;;;;;;;;5052669;28;20112;-61
2022/09/13 03:59:30;;;;;;;20.40;13.43;;;;;;;;;;5051281;28;20120;-62
2022/09/13 04:01:56;;;;;;;20.38;14.13;;;;;;;;;;5051358;28;20017;-59
2022/09/13 04:04:22;;;;;;;21.05;13.80;;;;;;;;;;5052537;28;20036;-60
2022/09/13 04:06:48;;;;;;;19.25;13.43;;;;;;;;;;5053094;28;20104;-62
2022/09/13 04:09:14;;;;;;;20.60;13.35;;;;;;;;;;5053148;28;20056;-60
2022/09/13 04:11:40;;;;;;;21.88;13.10;;;;;;;;;;5052882;28;20051;-60
2022/09/13 04:14:06;;;;;;;20.40;14.02;;;;;;;;;;5053000;28;20143;-62
2022/09/13 04:16:32;;;;;;;19.77;13.20;;;;;;;;;;5051376;28;20029;-60
2022/09/13 04:18:58;;;;;;;20.27;13.93;;;;;;;;;;5050883;28;20060;-56
2022/09/13 04:21:24;;;;;;;20.88;13.07;;;;;;;;;;5051930;28;20032;-61
2022/09/13 04:23:50;;;;;;;20.02;13.43;;;;;;;;;;5052391;28;20024;-62
2022/09/13 04:26:16;;;;;;;19.48;12.40;;;;;;;;;;5052306;28;20017;-63
2022/09/13 04:28:42;;;;;;;20.27;12.90;;;;;;;;;;5051788;28;20017;-63
2022/09/13 04:31:08;;;;;;;19.73;13.32;;;;;;;;;;5051941;28;20549;-63
2022/09/13 04:33:35;;;;;;;20.63;13.00;;;;;;;;;;5052136;28;20029;-62
2022/09/13 04:36:01;;;;;;;20.95;13.20;;;;;;;;;;5052285;28;20367;-60
2022/09/13 04:38:30;;;;;;;18.77;12.98;;;;;;;;;;5051522;28;20025;-58
2022/09/13 04:40:56;;;;;;;20.23;13.73;;;;;;;;;;5052006;28;20025;-62
2022/09/13 04:43:23;;;;;;;20.65;13.68;;;;;;;;;;5051661;28;20487;-61
2022/09/13 04:45:49;;;;;;;24.05;13.20;;;;;;;;;;5051839;28;20397;-61
2022/09/13 04:48:15;;;;;;;21.23;13.65;;;;;;;;;;5050316;28;20117;-62
2022/09/13 04:50:41;;;;;;;21.27;13.77;;;;;;;;;;5051640;28;20421;-62
2022/09/13 04:53:07;;;;;;;20.23;13.18;;;;;;;;;;5051385;28;20029;-63
2022/09/13 04:55:35;;;;;;;22.48;14.48;;;;;;;;;;5051394;28;20393;-62
2022/09/13 04:58:01;;;;;;;19.88;13.68;;;;;;;;;;5050901;28;20029;-61
2022/09/13 05:00:27;;;;;;;24.05;15.18;;;;;;;;;;5051478;28;20090;-60
2022/09/13 05:02:57;;;;;;;22.05;14.93;;;;;;;;;;5049898;28;20448;-61
2022/09/13 05:05:24;;;;;;;23.05;14.77;;;;;;;;;;5050441;28;20075;-63
2022/09/13 05:07:50;;;;;;;23.10;15.55;;;;;;;;;;5050033;28;20087;-63
2022/09/13 05:10:16;;;;;;;19.63;14.35;;;;;;;;;;5051462;28;20036;-62
2022/09/13 05:12:42;;;;;;;24.33;16.00;;;;;;;;;;5049825;28;20116;-62
2022/09/13 05:15:10;;;;;;;23.13;15.80;;;;;;;;;;5051269;28;20108;-62
2022/09/13 05:17:36;;;;;;;21.48;14.18;;;;;;;;;;5051037;28;20362;-61
2022/09/13 05:20:03;;;;;;;22.25;14.65;;;;;;;;;;5051438;28;20079;-62
2022/09/13 05:22:29;;;;;;;24.10;14.88;;;;;;;;;;5051102;28;20029;-63
2022/09/13 05:24:55;;;;;;;21.00;15.35;;;;;;;;;;5051263;28;20124;-62
2022/09/13 05:27:21;;;;;;;21.15;15.10;;;;;;;;;;5050936;28;20021;-63
2022/09/13 05:29:47;;;;;;;23.08;15.60;;;;;;;;;;5050943;28;20090;-64
2022/09/13 05:32:13;;;;;;;20.58;14.35;;;;;;;;;;5049697;28;20448;-60
2022/09/13 05:34:39;;;;;;;23.73;14.50;;;;;;;;;;5051185;28;20036;-56
2022/09/13 05:37:05;;;;;;;24.52;15.07;;;;;;;;;;5051082;28;20029;-60
2022/09/13 05:39:31;;;;;;;20.15;14.55;;;;;;;;;;5050789;28;20033;-60
2022/09/13 05:41:57;;;;;;;23.48;14.63;;;;;;;;;;5051008;28;20019;-57
2022/09/13 05:44:23;;;;;;;20.70;14.52;;;;;;;;;;5050956;28;20025;-61
2022/09/13 05:46:49;;;;;;;27.88;15.75;;;;;;;;;;5051263;28;20104;-63
2022/09/13 05:49:16;;;;;;;20.25;14.38;;;;;;;;;;5048845;28;20130;-62
2022/09/13 05:51:42;;;;;;;23.05;14.73;;;;;;;;;;5048992;28;20704;-61
2022/09/13 05:54:10;;;;;;;20.05;13.50;;;;;;;;;;5050927;28;20052;-62
2022/09/13 05:56:36;;;;;;;;;;;;;;;;;;5051262;28;20025;-62
2022/09/13 05:59:02;;;;;;;22.80;14.77;;;;;;;;;;5050483;28;19908;-63
2022/09/13 06:01:28;;;;;;;21.13;14.80;;;;;;;;;;5050728;28;20021;-63
2022/09/13 06:03:56;;;;;;;22.13;13.93;;;;;;;;;;5051635;28;20550;-62
2022/09/13 06:06:22;;;;;;;22.70;15.25;;;;;;;;;;5050700;28;20568;-62
2022/09/13 06:08:51;;;;;;;20.95;14.35;;;;;;;;;;5049263;28;20108;-61
2022/09/13 06:11:17;;;;;;;;;;;;;;;;;;5053477;28;20024;-62
2022/09/13 06:13:43;;;;;;;20.55;14.48;;;;;;;;;;5054136;28;20419;-63
2022/09/13 06:16:11;;;;;;;20.13;14.35;;;;;;;;;;5054257;28;20025;-63
2022/09/13 06:18:37;;;;;;;20.52;14.85;;;;;;;;;;5053912;28;20362;-62
2022/09/13 06:21:03;;;;;;;21.70;14.98;;;;;;;;;;5053920;28;20025;-58
2022/09/13 06:23:29;;;;;;;20.73;13.93;;;;;;;;;;5053360;28;20115;-62
2022/09/13 06:25:59;;;;;;;22.02;14.45;;;;;;;;;;5053552;28;20021;-59
2022/09/13 06:28:25;;;;;;;20.95;14.38;;;;;;;;;;5053355;28;20033;-58
2022/09/13 06:30:51;;;;;;;21.73;13.93;;;;;;;;;;5053695;28;20043;-63
2022/09/13 06:33:17;;;;;;;22.02;14.20;;;;;;;;;;5052450;28;20017;-62
2022/09/13 06:35:43;;;;;;;23.35;14.82;;;;;;;;;;5053696;28;20025;-64
2022/09/13 06:38:09;;;;;;;21.90;14.90;;;;;;;;;;5053628;28;20029;-62
2022/09/13 06:40:35;;;;;;;22.67;14.45;;;;;;;;;;5053870;28;20025;-62
2022/09/13 06:43:01;;;;;;;21.55;14.10;;;;;;;;;;5053401;28;20108;-53
2022/09/13 06:45:27;;;;;;;22.13;14.13;;;;;;;;;;5053162;28;20025;-59
2022/09/13 06:47:54;;;;;;;22.20;13.23;;;;;;;;;;5051715;28;20070;-60
2022/09/13 06:50:20;;;;;;;22.02;14.10;;;;;;;;;;5053374;28;20041;-60
2022/09/13 06:52:46;;;;;;;21.08;13.38;;;;;;;;;;5052814;28;20033;-61
2022/09/13 06:55:12;;;;;;;21.27;14.65;;;;;;;;;;5053256;28;20063;-54
2022/09/13 06:57:38;;;;;;;24.80;14.25;;;;;;;;;;5052853;28;20029;-59
2022/09/13 07:00:05;;;;;;;21.58;13.85;;;;;;;;;;5051796;28;20025;-56
2022/09/13 07:02:31;;;;;;;22.85;14.65;;;;;;;;;;5052910;28;20051;-61
2022/09/13 07:04:57;;;;;;;21.98;13.68;;;;;;;;;;5053125;28;20362;-61
2022/09/13 07:07:23;;;;;;;21.98;14.60;;;;;;;;;;5053083;28;20024;-60
2022/09/13 07:09:49;;;;;;;21.10;14.20;;;;;;;;;;5053382;28;20021;-58
2022/09/13 07:12:15;;;;;;;21.33;15.23;;;;;;;;;;5051996;28;20120;-60
2022/09/13 07:14:41;;;;;;;19.75;13.57;;;;;;;;;;5051953;28;20037;-62
2022/09/13 07:17:07;;;;;;;19.48;13.82;;;;;;;;;;5052883;28;20028;-61
2022/09/13 07:19:33;;;;;;;19.90;14.98;;;;;;;;;;5052833;28;20029;-61
2022/09/13 07:21:59;;;;;;;21.30;15.05;;;;;;;;;;5052548;28;20473;-61
2022/09/13 07:24:26;;;;;;;23.08;15.88;;;;;;;;;;5053059;28;20025;-65
2022/09/13 07:26:52;;;;;;;22.83;15.25;;;;;;;;;;5051519;28;20029;-53
2022/09/13 07:29:21;;;;;;;23.42;15.70;;;;;;;;;;5052538;28;20028;-52
2022/09/13 07:31:48;;;;;;;21.50;14.82;;;;;;;;;;5052747;28;20444;-70
2022/09/13 07:34:14;;;;;;;20.95;14.70;;;;;;;;;;5053191;28;20021;-71
2022/09/13 07:36:40;;;;;;;24.63;15.13;;;;;;;;;;5051451;28;20490;-70
2022/09/13 07:39:06;;;;;;;24.23;15.55;;;;;;;;;;5052580;28;20440;-70
2022/09/13 07:41:33;;;;;;;23.45;14.75;;;;;;;;;;5052853;28;20032;-70
2022/09/13 07:44:00;;;;;;;22.13;15.23;;;;;;;;;;5051536;28;20048;-70
2022/09/13 07:46:27;;;;;;;23.00;15.20;;;;;;;;;;5052905;28;20032;-70
2022/09/13 07:48:54;;;;;;;23.15;14.80;;;;;;;;;;5051022;28;20032;-69
2022/09/13 07:51:21;;;;;;;22.48;15.35;;;;;;;;;;5051357;28;20070;-69
2022/09/13 07:53:48;;;;;;;24.23;16.92;;;;;;;;;;5052387;28;20033;-68
2022/09/13 07:56:14;;;;;;;21.90;15.60;;;;;;;;;;5052420;28;20025;-70
2022/09/13 07:58:41;;;;;;;27.98;16.48;;;;;;;;;;5051839;28;20108;-70
2022/09/13 08:01:12;;;;;;;22.80;16.58;;;;;;;;;;5051053;28;20032;-69
2022/09/13 08:03:38;;;;;;;24.70;17.00;;;;;;;;;;5052871;28;20114;-69
2022/09/13 08:06:05;;;;;;;23.85;16.80;;;;;;;;;;5053236;28;20025;-69
2022/09/13 08:08:31;;;;;;;24.25;18.13;;;;;;;;;;5053130;28;20111;-70
2022/09/13 08:10:58;;;;;;;28.75;18.83;;;;;;;;;;5053425;28;20485;-70
2022/09/13 08:13:24;;;;;;;24.23;16.90;;;;;;;;;;5053363;28;20126;-70
2022/09/13 08:15:50;;;;;;;23.30;17.42;;;;;;;;;;5052937;28;20024;-72
2022/09/13 08:18:16;;;;;;;24.45;17.60;;;;;;;;;;5050306;28;20052;-70
2022/09/13 08:20:42;;;;;;;26.45;18.15;;;;;;;;;;5052208;28;20071;-70
2022/09/13 08:23:09;;;;;;;24.60;17.88;;;;;;;;;;5052118;28;20025;-70
2022/09/13 08:25:37;;;;;;;23.98;17.52;;;;;;;;;;5052017;28;20036;-70
2022/09/13 08:28:06;;;;;;;25.00;16.80;;;;;;;;;;5051790;28;20027;-70
2022/09/13 08:30:36;;;;;;;25.80;17.42;;;;;;;;;;5051902;28;20747;-70
2022/09/13 08:33:06;;;;;;;25.40;18.33;;;;;;;;;;5049710;28;20396;-71
2022/09/13 08:35:32;;;;;;;26.95;18.02;;;;;;;;;;5050368;28;20119;-70
2022/09/13 08:37:59;;;;;;;22.63;17.35;;;;;;;;;;5052493;28;20028;-70
2022/09/13 08:40:27;;;;;;;25.08;18.73;;;;;;;;;;5051537;28;20025;-69
2022/09/13 08:42:53;;;;;;;24.13;16.90;;;;;;;;;;5051581;28;20052;-70
2022/09/13 08:45:21;;;;;;;23.35;17.55;;;;;;;;;;5050336;28;20040;-69
2022/09/13 08:47:49;;;;;;;27.08;17.67;;;;;;;;;;5050892;28;20026;-69
2022/09/13 08:50:18;;;;;;;26.80;18.90;;;;;;;;;;5051115;28;20063;-69
2022/09/13 08:52:47;;;;;;;23.92;18.80;;;;;;;;;;5050889;28;20017;-69
2022/09/13 08:55:34;;;;;;;25.45;19.20;;;;;;;;;;5050110;28;20021;-69
2022/09/13 08:58:06;;;;;;;25.88;19.42;;;;;;;;;;5040758;28;20045;-70
2022/09/13 09:00:39;;;;;;;24.33;18.95;;;;;;;;;;5031259;28;20106;-69
2022/09/13 09:03:05;;;;;;;35.25;19.42;;;;;;;;;;5031274;28;20115;-68
2022/09/13 09:05:39;;;;;;;26.55;19.02;;;;;;;;;;5031405;28;20026;-69
2022/09/13 09:08:15;;;;;;;22.80;17.98;;;;;;;;;;5050515;28;20044;-69
2022/09/13 09:10:42;;;;;;;26.98;20.88;;;;;;;;;;5051183;28;20601;-69
2022/09/13 09:13:13;;;;;;;25.98;20.58;;;;;;;;;;5049877;28;20024;-68
2022/09/13 09:15:41;;;;;;;30.73;21.42;;;;;;;;;;5051401;28;20061;-68
2022/09/13 09:18:27;;;;;;;27.27;21.50;;;;;;;;;;5050390;28;20033;-69
2022/09/13 09:20:55;;;;;;;25.10;19.45;;;;;;;;;;5047275;28;20028;-69
2022/09/13 09:23:30;;;;;;;28.17;19.77;;;;;;;;;;5048602;28;20489;-69
2022/09/13 09:26:00;;;;;;;25.58;19.55;;;;;;;;;;5051202;28;20029;-69
2022/09/13 09:28:30;;;;;;;25.35;18.55;;;;;;;;;;5050883;28;20028;-69
2022/09/13 09:31:02;;;;;;;27.67;19.52;;;;;;;;;;5050842;28;20029;-69
2022/09/13 09:33:51;;;;;;;26.35;18.48;;;;;;;;;;5050653;28;20033;-67
2022/09/13 09:36:36;;;;;;;23.65;18.02;;;;;;;;;;5046812;28;20029;-67
2022/09/13 09:39:03;;;;;;;26.65;19.58;;;;;;;;;;5050418;28;20025;-69
2022/09/13 09:41:31;;;;;;;24.23;17.30;;;;;;;;;;5050398;28;20025;-70
2022/09/13 09:44:16;;;;;;;23.73;17.00;;;;;;;;;;5051229;28;20087;-70
2022/09/13 09:46:43;;;;;;;23.55;16.83;;;;;;;;;;5052688;28;20022;-69
2022/09/13 09:52:06;;;;;;;21.42;14.82;;;;;;;;;;5054860;28;20060;-70
2022/09/13 09:54:34;;;;;;;20.58;14.50;;;;;;;;;;5054669;28;20096;-70
2022/09/13 09:57:00;;;;;;;19.98;13.65;;;;;;;;;;5055091;28;20104;-70
2022/09/13 09:59:28;;;;;;;19.75;13.27;;;;;;;;;;5053146;28;20083;-70
2022/09/13 10:01:56;;;;;;;21.63;15.50;;;;;;;;;;5053412;28;20047;-69
2022/09/13 10:04:23;;;;;;;24.23;14.35;;;;;;;;;;5054825;28;20763;-69
2022/09/13 10:06:50;;;;;;;23.55;16.25;;;;;;;;;;5054509;28;20029;-70
2022/09/13 10:09:18;;;;;;;22.73;16.05;;;;;;;;;;5053892;28;20481;-70
2022/09/13 10:11:47;;;;;;;21.50;14.80;;;;;;;;;;5053201;28;20386;-70
2022/09/13 10:14:30;;;;;;;21.73;14.65;;;;;;;;;;5054429;28;20397;-70
2022/09/13 10:17:15;;;;;;;20.98;14.45;;;;;;;;;;5054508;28;20035;-70
2022/09/13 10:19:51;;;;;;;21.35;15.48;;;;;;;;;;5054346;28;20028;-70
2022/09/13 10:22:17;;;;;;;20.60;15.15;;;;;;;;;;5053863;28;20047;-70
2022/09/13 10:24:43;;;;;;;24.60;16.33;;;;;;;;;;5053644;28;20068;-70
2022/09/13 10:27:22;;;;;;;23.33;16.85;;;;;;;;;;5053709;28;20091;-70
2022/09/13 10:29:54;;;;;;;21.23;15.20;;;;;;;;;;5054004;28;20485;-70
2022/09/13 10:32:20;;;;;;;22.02;16.80;;;;;;;;;;5053808;28;20114;-70
2022/09/13 10:34:48;;;;;;;22.65;16.17;;;;;;;;;;5052351;28;20075;-70
2022/09/13 10:37:22;;;;;;;26.47;17.73;;;;;;;;;;5053480;28;20024;-70
2022/09/13 10:39:51;;;;;;;23.63;17.35;;;;;;;;;;5053717;28;20043;-70
2022/09/13 10:42:20;;;;;;;24.92;17.08;;;;;;;;;;5053567;28;20036;-70
2022/09/13 10:44:51;;;;;;;22.92;16.73;;;;;;;;;;5053725;28;20107;-69
2022/09/13 10:47:20;;;;;;;25.05;16.35;;;;;;;;;;5053689;28;20104;-69
2022/09/13 10:49:53;;;;;;;24.50;18.23;;;;;;;;;;5053621;28;20024;-70
2022/09/13 10:52:35;;;;;;;24.23;17.08;;;;;;;;;;5053619;28;20032;-69
2022/09/13 10:55:20;;;;;;;22.77;15.70;;;;;;;;;;5053322;28;20029;-70
2022/09/13 10:57:52;;;;;;;22.08;16.05;;;;;;;;;;5052457;28;20078;-70
2022/09/13 11:00:24;;;;;;;22.40;16.40;;;;;;;;;;5053502;28;20017;-69
2022/09/13 11:03:08;;;;;;;22.92;16.60;;;;;;;;;;5053807;28;20456;-70
2022/09/13 11:05:40;;;;;;;21.38;15.82;;;;;;;;;;5052170;28;20389;-70
2022/09/13 11:08:06;;;;;;;21.23;15.23;;;;;;;;;;5065508;28;20473;-69
2022/09/13 11:10:38;;;;;;;20.52;15.63;;;;;;;;;;5073708;28;20032;-68
2022/09/13 11:13:23;;;;;;;23.85;17.48;;;;;;;;;;5072093;28;20030;-73
2022/09/13 11:15:52;;;;;;;21.80;15.95;;;;;;;;;;5072055;28;20034;-69
2022/09/13 11:18:37;;;;;;;22.48;17.05;;;;;;;;;;5073336;28;20457;-69
2022/09/13 11:21:07;;;;;;;23.92;16.85;;;;;;;;;;4712835;28;10000563;-72
2022/09/13 11:23:59;;;;;;;23.10;17.83;;;;;;;;;;5050839;28;20033;-70
2022/09/13 11:26:44;;;;;;;23.88;17.52;;;;;;;;;;5029342;28;20148;-71
2022/09/13 11:29:10;;;;;;;23.70;16.52;;;;;;;;;;5030585;28;20037;-71
2022/09/13 11:31:45;;;;;;;23.02;17.15;;;;;;;;;;5049461;28;20028;-70
2022/09/13 11:34:10;;;;;;;21.77;16.17;;;;;;;;;;5050641;28;20044;-70
2022/09/13 11:36:48;;;;;;;20.70;16.15;;;;;;;;;;5051118;28;20400;-70
2022/09/13 11:39:21;;;;;;;22.38;16.58;;;;;;;;;;5050366;28;20174;-70
2022/09/13 11:41:56;;;;;;;23.80;16.08;;;;;;;;;;5048809;28;20036;-70
2022/09/13 11:44:41;;;;;;;24.25;18.73;;;;;;;;;;5051830;28;20032;-70
2022/09/13 11:47:07;;;;;;;25.40;16.67;;;;;;;;;;5050980;28;20443;-70
2022/09/13 11:49:43;;;;;;;22.67;17.25;;;;;;;;;;5052095;28;20028;-69
2022/09/13 11:52:15;;;;;;;22.85;16.65;;;;;;;;;;5052086;28;20028;-69
2022/09/13 11:54:48;;;;;;;23.15;15.40;;;;;;;;;;5052314;28;20239;-69
2022/09/13 11:57:17;;;;;;;21.90;15.90;;;;;;;;;;5050774;28;20025;-69
2022/09/13 11:59:46;;;;;;;26.73;16.75;;;;;;;;;;5052051;28;20110;-69
2022/09/13 12:02:15;;;;;;;24.90;17.73;;;;;;;;;;5051983;28;20048;-69
2022/09/13 12:04:52;;;;;;;22.63;16.25;;;;;;;;;;5052231;28;20031;-68
2022/09/13 12:07:24;;;;;;;21.85;15.88;;;;;;;;;;5049912;28;20025;-69
2022/09/13 12:09:58;;;;;;;22.23;15.95;;;;;;;;;;5051663;28;20477;-68
2022/09/13 12:12:27;;;;;;;21.23;15.60;;;;;;;;;;5052181;28;20020;-69
2022/09/13 12:15:02;;;;;;;20.80;15.80;;;;;;;;;;5051920;28;20120;-69
2022/09/13 12:17:30;;;;;;;21.35;15.02;;;;;;;;;;5051562;28;20044;-69
2022/09/13 12:19:59;;;;;;;23.23;15.35;;;;;;;;;;5050388;28;20039;-69
2022/09/13 12:22:27;;;;;;;24.63;19.27;;;;;;;;;;5051464;28;20377;-67
2022/09/13 12:24:54;;;;;;;;;;;;;;;;;;5051841;28;20033;-67
2022/09/13 12:27:39;;;;;;;24.17;16.00;;;;;;;;;;5051414;28;19927;-66
2022/09/13 12:30:14;;;;;;;23.23;15.82;;;;;;;;;;5051831;28;20033;-66
2022/09/13 12:32:40;;;;;;;20.48;15.55;;;;;;;;;;5050466;28;20029;-66
2022/09/13 12:35:06;;;;;;;20.65;14.75;;;;;;;;;;5050228;28;20421;-66
2022/09/13 12:37:51;;;;;;;22.38;16.45;;;;;;;;;;5051329;28;20104;-64
2022/09/13 12:40:26;;;;;;;20.30;14.13;;;;;;;;;;5051492;28;20040;-67
2022/09/13 12:42:58;;;;;;;19.67;14.05;;;;;;;;;;5051521;28;20417;-66
2022/09/13 12:45:43;;;;;;;27.63;13.85;;;;;;;;;;5051332;28;20033;-65
2022/09/13 12:48:27;;;;;;;19.98;14.52;;;;;;;;;;5051242;28;20017;-66
2022/09/13 12:50:56;;;;;;;20.10;14.40;;;;;;;;;;5051232;28;20047;-66
2022/09/13 12:53:52;;;;;;;20.67;15.15;;;;;;;;;;5051463;28;20033;-67
2022/09/13 12:56:30;;;;;;;20.60;14.68;;;;;;;;;;5038487;28;20040;-67
2022/09/13 12:59:08;;;;;;;20.77;15.93;;;;;;;;;;5051376;28;20040;-67
2022/09/13 13:01:34;;;;;;;22.40;15.57;;;;;;;;;;4334223;28;10000415;-66
2022/09/13 13:04:22;;;;;;;20.10;16.35;;;;;;;;;;5060481;28;20036;-65
2022/09/13 13:06:56;;;;;;;20.25;15.73;;;;;;;;;;5048636;28;20393;-66
2022/09/13 13:09:34;;;;;;;19.48;15.45;;;;;;;;;;5046806;28;20047;-66
2022/09/13 13:12:00;;;;;;;25.65;15.60;;;;;;;;;;5047187;28;20025;-68
2022/09/13 13:14:27;;;;;;;18.67;14.80;;;;;;;;;;5049206;28;20128;-66
2022/09/13 13:16:53;;;;;;;22.73;16.33;;;;;;;;;;5049976;28;20104;-67
2022/09/13 13:19:32;;;;;;;19.25;15.27;;;;;;;;;;5052234;28;20032;-66
2022/09/13 13:22:17;;;;;;;19.80;14.48;;;;;;;;;;5055334;28;20583;-67
2022/09/13 13:24:47;;;;;;;18.38;13.27;;;;;;;;;;5055892;28;20105;-67
2022/09/13 13:27:32;;;;;;;19.33;13.10;;;;;;;;;;5055425;28;20535;-67
2022/09/13 13:30:16;;;;;;;19.08;13.93;;;;;;;;;;5055526;28;20041;-67
2022/09/13 13:33:02;;;;;;;19.98;14.85;;;;;;;;;;5055297;28;20033;-68
2022/09/13 13:35:31;;;;;;;18.75;13.80;;;;;;;;;;5055270;28;20049;-68
2022/09/13 13:38:13;;;;;;;21.08;12.90;;;;;;;;;;5053797;28;20059;-68
2022/09/13 13:40:39;;;;;;;18.30;12.77;;;;;;;;;;5053620;28;20060;-67
2022/09/13 13:43:16;;;;;;;18.85;14.02;;;;;;;;;;5054957;28;20395;-67
2022/09/13 13:45:56;;;;;;;18.67;12.45;;;;;;;;;;5053728;28;20028;-67
2022/09/13 13:48:42;;;;;;;20.98;14.52;;;;;;;;;;5053530;28;20477;-68
2022/09/13 13:51:11;;;;;;;22.50;14.20;;;;;;;;;;5053522;28;20115;-68
2022/09/13 13:53:41;;;;;;;20.33;13.23;;;;;;;;;;5054870;28;20374;-68
2022/09/13 13:56:28;;;;;;;17.63;12.50;;;;;;;;;;5054746;28;20045;-68
2022/09/13 13:58:57;;;;;;;18.80;13.77;;;;;;;;;;5043979;28;20044;-69
2022/09/13 14:01:28;;;;;;;16.58;13.30;;;;;;;;;;5055054;28;20100;-70
2022/09/13 14:04:12;;;;;;;17.38;12.77;;;;;;;;;;5055363;28;20033;-69
2022/09/13 14:06:38;;;;;;;18.42;13.55;;;;;;;;;;5054735;28;20021;-69
2022/09/13 14:09:14;;;;;;;18.08;12.82;;;;;;;;;;5054398;28;20032;-67
2022/09/13 14:11:47;;;;;;;17.98;12.50;;;;;;;;;;5054524;28;20025;-71
2022/09/13 14:14:16;;;;;;;18.77;12.65;;;;;;;;;;5054475;28;20323;-67
2022/09/13 14:17:02;;;;;;;17.70;13.35;;;;;;;;;;5054548;28;20028;-70
2022/09/13 14:19:28;;;;;;;16.98;12.57;;;;;;;;;;5032570;28;20382;-69
2022/09/13 14:22:21;;;;;;;17.17;12.68;;;;;;;;;;5054280;28;20024;-70
2022/09/13 14:24:48;;;;;;;17.05;12.63;;;;;;;;;;5052886;28;20056;-67
2022/09/13 14:27:15;;;;;;;15.95;12.23;;;;;;;;;;5053751;28;20036;-69
2022/09/13 14:29:44;;;;;;;16.33;12.23;;;;;;;;;;5053537;28;20108;-69
2022/09/13 14:32:13;;;;;;;17.38;12.00;;;;;;;;;;5052996;28;20482;-70
2022/09/13 14:34:39;;;;;;;16.58;11.88;;;;;;;;;;5054247;28;20048;-69
2022/09/13 14:37:06;;;;;;;18.17;11.80;;;;;;;;;;5069117;28;20117;-70
2022/09/13 14:39:32;;;;;;;15.82;11.23;;;;;;;;;;5074242;28;20492;-68